sensor_id;sensor_type;location;lat;lon;timestamp;pressure;altitude;pressure_sealevel;temperature;humidity
75424;BME280;64005;55.160;36.002;2023-03-01T00:01:10;98540.66;;;-4.28;60.77
75424;BME280;64005;55.160;36.002;2023-03-01T00:03:39;98537.25;;;-4.40;61.18
75424;BME280;64005;55.160;36.002;2023-03-01T00:06:07;98533.88;;;-4.47;61.60
75424;BME280;64005;55.160;36.002;2023-03-01T00:08:35;98530.53;;;-4.54;61.99
75424;BME280;64005;55.160;36.002;2023-03-01T00:11:05;98537.44;;;-4.47;62.12
75424;BME280;64005;55.160;36.002;2023-03-01T00:13:33;98535.72;;;-4.53;61.99
75424;BME280;64005;55.160;36.002;2023-03-01T00:16:02;98533.56;;;-4.51;62.23
75424;BME280;64005;55.160;36.002;2023-03-01T00:18:30;98540.31;;;-4.53;62.09
75424;BME280;64005;55.160;36.002;2023-03-01T00:20:59;98530.19;;;-4.58;62.74
75424;BME280;64005;55.160;36.002;2023-03-01T00:23:27;98531.78;;;-4.62;63.18
75424;BME280;64005;55.160;36.002;2023-03-01T00:25:54;98531.19;;;-4.64;62.99
75424;BME280;64005;55.160;36.002;2023-03-01T00:28:22;98518.06;;;-4.72;63.43
75424;BME280;64005;55.160;36.002;2023-03-01T00:30:50;98520.22;;;-4.74;63.30
75424;BME280;64005;55.160;36.002;2023-03-01T00:33:17;98509.72;;;-4.87;63.71
75424;BME280;64005;55.160;36.002;2023-03-01T00:35:45;98511.59;;;-4.88;63.81
75424;BME280;64005;55.160;36.002;2023-03-01T00:38:14;98509.53;;;-4.97;63.91
75424;BME280;64005;55.160;36.002;2023-03-01T00:40:42;98510.88;;;-5.00;64.09
75424;BME280;64005;55.160;36.002;2023-03-01T00:43:09;98514.91;;;-5.02;64.49
75424;BME280;64005;55.160;36.002;2023-03-01T00:45:37;98508.06;;;-5.05;64.81
75424;BME280;64005;55.160;36.002;2023-03-01T00:48:05;98508.34;;;-5.06;64.88
75424;BME280;64005;55.160;36.002;2023-03-01T00:50:32;98504.56;;;-5.05;64.64
75424;BME280;64005;55.160;36.002;2023-03-01T00:53:00;98508.16;;;-5.00;65.10
75424;BME280;64005;55.160;36.002;2023-03-01T00:55:29;98503.06;;;-4.96;64.76
75424;BME280;64005;55.160;36.002;2023-03-01T00:57:56;98508.66;;;-4.86;64.94
75424;BME280;64005;55.160;36.002;2023-03-01T01:00:24;98371.28;;;-5.69;64.12
75424;BME280;64005;55.160;36.002;2023-03-01T01:02:53;98495.78;;;-4.74;64.32
75424;BME280;64005;55.160;36.002;2023-03-01T01:05:20;98490.78;;;-4.65;64.45
75424;BME280;64005;55.160;36.002;2023-03-01T01:07:48;98454.75;;;-4.77;64.46
75424;BME280;64005;55.160;36.002;2023-03-01T01:10:16;98485.94;;;-4.58;64.06
75424;BME280;64005;55.160;36.002;2023-03-01T01:12:46;98502.16;;;-4.47;64.29
75424;BME280;64005;55.160;36.002;2023-03-01T01:15:14;98503.59;;;-4.39;64.37
75424;BME280;64005;55.160;36.002;2023-03-01T01:17:42;98502.84;;;-4.34;64.17
75424;BME280;64005;55.160;36.002;2023-03-01T01:20:11;98491.34;;;-4.42;65.28
75424;BME280;64005;55.160;36.002;2023-03-01T01:22:39;98500.19;;;-4.29;66.34
75424;BME280;64005;55.160;36.002;2023-03-01T01:25:07;98496.00;;;-4.37;66.61
75424;BME280;64005;55.160;36.002;2023-03-01T01:27:35;98492.03;;;-4.51;67.40
75424;BME280;64005;55.160;36.002;2023-03-01T01:30:05;98489.44;;;-4.63;67.26
75424;BME280;64005;55.160;36.002;2023-03-01T01:32:33;98494.97;;;-4.74;68.45
75424;BME280;64005;55.160;36.002;2023-03-01T01:35:01;98486.44;;;-4.83;69.18
75424;BME280;64005;55.160;36.002;2023-03-01T01:37:29;98492.03;;;-4.90;69.11
75424;BME280;64005;55.160;36.002;2023-03-01T01:39:59;98483.94;;;-5.06;69.62
75424;BME280;64005;55.160;36.002;2023-03-01T01:42:30;98496.16;;;-5.04;70.01
75424;BME280;64005;55.160;36.002;2023-03-01T01:45:29;98499.47;;;-5.18;69.75
75424;BME280;64005;55.160;36.002;2023-03-01T01:48:00;98508.34;;;-5.23;70.76
75424;BME280;64005;55.160;36.002;2023-03-01T01:50:29;98501.78;;;-5.27;71.03
75424;BME280;64005;55.160;36.002;2023-03-01T01:53:07;98498.72;;;-5.31;70.64
75424;BME280;64005;55.160;36.002;2023-03-01T01:55:36;98486.97;;;-5.36;71.64
75424;BME280;64005;55.160;36.002;2023-03-01T01:58:06;98485.50;;;-5.44;71.73
75424;BME280;64005;55.160;36.002;2023-03-01T02:00:37;98493.97;;;-5.40;72.02
75424;BME280;64005;55.160;36.002;2023-03-01T02:03:09;98487.53;;;-5.51;72.17
75424;BME280;64005;55.160;36.002;2023-03-01T02:05:45;98492.72;;;-5.49;73.25
75424;BME280;64005;55.160;36.002;2023-03-01T02:08:16;98500.84;;;-5.49;73.32
75424;BME280;64005;55.160;36.002;2023-03-01T02:10:46;98510.78;;;-5.55;72.88
75424;BME280;64005;55.160;36.002;2023-03-01T02:13:15;98503.47;;;-5.54;72.95
75424;BME280;64005;55.160;36.002;2023-03-01T02:15:44;98504.38;;;-5.66;72.83
75424;BME280;64005;55.160;36.002;2023-03-01T02:18:14;98427.81;;;-6.23;73.28
75424;BME280;64005;55.160;36.002;2023-03-01T02:20:50;98501.47;;;-5.76;73.52
75424;BME280;64005;55.160;36.002;2023-03-01T02:23:22;98502.28;;;-5.75;73.70
75424;BME280;64005;55.160;36.002;2023-03-01T02:25:55;98491.13;;;-5.79;73.51
75424;BME280;64005;55.160;36.002;2023-03-01T02:28:34;98479.56;;;-5.91;73.14
75424;BME280;64005;55.160;36.002;2023-03-01T02:31:03;98495.47;;;-5.94;73.48
75424;BME280;64005;55.160;36.002;2023-03-01T02:33:50;98498.50;;;-5.91;73.30
75424;BME280;64005;55.160;36.002;2023-03-01T02:36:21;98446.50;;;-6.21;73.30
75424;BME280;64005;55.160;36.002;2023-03-01T02:38:53;98464.16;;;-6.19;73.91
75424;BME280;64005;55.160;36.002;2023-03-01T02:41:23;98497.19;;;-6.05;73.29
75424;BME280;64005;55.160;36.002;2023-03-01T02:43:54;98497.97;;;-6.05;73.56
75424;BME280;64005;55.160;36.002;2023-03-01T02:46:24;98492.97;;;-6.13;73.54
75424;BME280;64005;55.160;36.002;2023-03-01T02:48:54;98494.63;;;-6.23;73.71
75424;BME280;64005;55.160;36.002;2023-03-01T02:51:31;98494.53;;;-6.28;73.15
75424;BME280;64005;55.160;36.002;2023-03-01T02:54:09;98458.13;;;-6.49;73.14
75424;BME280;64005;55.160;36.002;2023-03-01T02:56:39;98496.78;;;-6.37;73.54
75424;BME280;64005;55.160;36.002;2023-03-01T02:59:09;98493.25;;;-6.37;73.17
75424;BME280;64005;55.160;36.002;2023-03-01T03:01:37;98492.34;;;-6.43;73.24
75424;BME280;64005;55.160;36.002;2023-03-01T03:04:06;98421.59;;;-6.92;73.38
75424;BME280;64005;55.160;36.002;2023-03-01T03:06:36;98501.19;;;-6.48;73.36
75424;BME280;64005;55.160;36.002;2023-03-01T03:09:04;98488.25;;;-6.57;73.18
75424;BME280;64005;55.160;36.002;2023-03-01T03:11:34;98504.84;;;-6.54;73.81
75424;BME280;64005;55.160;36.002;2023-03-01T03:14:02;98501.66;;;-6.51;73.44
75424;BME280;64005;55.160;36.002;2023-03-01T03:16:31;98504.03;;;-6.54;73.18
75424;BME280;64005;55.160;36.002;2023-03-01T03:18:59;98499.09;;;-6.57;73.23
75424;BME280;64005;55.160;36.002;2023-03-01T03:21:31;98500.41;;;-6.60;73.41
75424;BME280;64005;55.160;36.002;2023-03-01T03:23:59;98495.25;;;-6.73;73.66
75424;BME280;64005;55.160;36.002;2023-03-01T03:26:26;98501.59;;;-6.67;73.67
75424;BME280;64005;55.160;36.002;2023-03-01T03:28:54;98500.75;;;-6.68;73.72
75424;BME280;64005;55.160;36.002;2023-03-01T03:31:22;98499.00;;;-6.74;73.86
75424;BME280;64005;55.160;36.002;2023-03-01T03:33:51;98501.94;;;-6.75;73.71
75424;BME280;64005;55.160;36.002;2023-03-01T03:36:21;98503.50;;;-6.79;73.49
75424;BME280;64005;55.160;36.002;2023-03-01T03:38:48;98490.09;;;-6.86;73.65
75424;BME280;64005;55.160;36.002;2023-03-01T03:41:17;98505.25;;;-6.85;73.90
75424;BME280;64005;55.160;36.002;2023-03-01T03:43:44;98494.78;;;-6.82;73.84
75424;BME280;64005;55.160;36.002;2023-03-01T03:46:12;98508.06;;;-6.80;73.70
75424;BME280;64005;55.160;36.002;2023-03-01T03:48:41;98511.72;;;-6.86;73.77
75424;BME280;64005;55.160;36.002;2023-03-01T03:51:12;98493.03;;;-6.88;73.51
75424;BME280;64005;55.160;36.002;2023-03-01T03:53:40;98513.94;;;-6.83;74.18
75424;BME280;64005;55.160;36.002;2023-03-01T03:56:08;98502.19;;;-6.89;73.93
75424;BME280;64005;55.160;36.002;2023-03-01T03:58:35;98512.91;;;-6.94;73.90
75424;BME280;64005;55.160;36.002;2023-03-01T04:01:03;98520.19;;;-6.94;74.17
75424;BME280;64005;55.160;36.002;2023-03-01T04:03:32;98412.56;;;-7.67;73.83
75424;BME280;64005;55.160;36.002;2023-03-01T04:06:01;98512.44;;;-7.02;74.05
75424;BME280;64005;55.160;36.002;2023-03-01T04:08:31;98517.94;;;-7.09;74.39
75424;BME280;64005;55.160;36.002;2023-03-01T04:11:00;98527.47;;;-7.06;74.05
75424;BME280;64005;55.160;36.002;2023-03-01T04:13:49;98519.59;;;-7.08;74.25
75424;BME280;64005;55.160;36.002;2023-03-01T04:16:17;98517.13;;;-7.09;74.55
75424;BME280;64005;55.160;36.002;2023-03-01T04:18:45;98521.47;;;-7.08;74.51
75424;BME280;64005;55.160;36.002;2023-03-01T04:21:13;98522.75;;;-7.11;74.04
75424;BME280;64005;55.160;36.002;2023-03-01T04:23:42;98526.78;;;-7.13;74.36
75424;BME280;64005;55.160;36.002;2023-03-01T04:26:10;98524.53;;;-7.16;74.42
75424;BME280;64005;55.160;36.002;2023-03-01T04:28:39;98479.25;;;-7.44;74.39
75424;BME280;64005;55.160;36.002;2023-03-01T04:31:10;98523.34;;;-7.20;74.45
75424;BME280;64005;55.160;36.002;2023-03-01T04:33:40;98527.59;;;-7.25;74.39
75424;BME280;64005;55.160;36.002;2023-03-01T04:36:10;98533.56;;;-7.23;74.27
75424;BME280;64005;55.160;36.002;2023-03-01T04:38:39;98528.88;;;-7.27;74.03
75424;BME280;64005;55.160;36.002;2023-03-01T04:41:09;98531.78;;;-7.29;74.38
75424;BME280;64005;55.160;36.002;2023-03-01T04:43:38;98530.53;;;-7.26;73.81
75424;BME280;64005;55.160;36.002;2023-03-01T04:46:13;98496.88;;;-7.53;74.22
75424;BME280;64005;55.160;36.002;2023-03-01T04:48:42;98543.09;;;-7.32;73.90
75424;BME280;64005;55.160;36.002;2023-03-01T04:51:11;98548.22;;;-7.30;73.96
75424;BME280;64005;55.160;36.002;2023-03-01T04:53:41;98459.72;;;-7.81;74.43
75424;BME280;64005;55.160;36.002;2023-03-01T04:56:10;98551.53;;;-7.16;73.97
75424;BME280;64005;55.160;36.002;2023-03-01T04:58:39;98551.69;;;-7.11;73.87
75424;BME280;64005;55.160;36.002;2023-03-01T05:01:10;98549.66;;;-7.04;74.15
75424;BME280;64005;55.160;36.002;2023-03-01T05:03:42;98556.97;;;-6.93;73.52
75424;BME280;64005;55.160;36.002;2023-03-01T05:06:10;98551.78;;;-6.83;73.29
75424;BME280;64005;55.160;36.002;2023-03-01T05:08:38;98558.72;;;-6.75;73.11
75424;BME280;64005;55.160;36.002;2023-03-01T05:11:06;98554.84;;;-6.68;72.44
75424;BME280;64005;55.160;36.002;2023-03-01T05:13:37;98555.19;;;-6.64;73.07
75424;BME280;64005;55.160;36.002;2023-03-01T05:16:07;98565.53;;;-6.61;72.78
75424;BME280;64005;55.160;36.002;2023-03-01T05:18:37;98563.78;;;-6.56;72.31
75424;BME280;64005;55.160;36.002;2023-03-01T05:21:06;98564.97;;;-6.52;72.54
75424;BME280;64005;55.160;36.002;2023-03-01T05:23:34;98572.00;;;-6.51;72.44
75424;BME280;64005;55.160;36.002;2023-03-01T05:26:03;98573.53;;;-6.55;71.90
75424;BME280;64005;55.160;36.002;2023-03-01T05:28:32;98570.72;;;-6.48;72.05
75424;BME280;64005;55.160;36.002;2023-03-01T05:31:01;98571.41;;;-6.41;72.27
75424;BME280;64005;55.160;36.002;2023-03-01T05:33:28;98580.13;;;-6.39;71.99
75424;BME280;64005;55.160;36.002;2023-03-01T05:36:00;98544.81;;;-6.44;71.84
75424;BME280;64005;55.160;36.002;2023-03-01T05:38:27;98589.81;;;-6.15;70.89
75424;BME280;64005;55.160;36.002;2023-03-01T05:40:55;98591.94;;;-6.05;71.08
75424;BME280;64005;55.160;36.002;2023-03-01T05:43:22;98586.63;;;-6.00;70.69
75424;BME280;64005;55.160;36.002;2023-03-01T05:45:50;98596.91;;;-5.85;70.77
75424;BME280;64005;55.160;36.002;2023-03-01T05:48:19;98585.66;;;-5.66;69.88
75424;BME280;64005;55.160;36.002;2023-03-01T05:50:47;98590.28;;;-5.49;69.28
75424;BME280;64005;55.160;36.002;2023-03-01T05:53:16;98588.66;;;-5.34;69.00
75424;BME280;64005;55.160;36.002;2023-03-01T05:55:44;98604.63;;;-5.04;68.43
75424;BME280;64005;55.160;36.002;2023-03-01T05:58:16;98601.38;;;-4.72;68.11
75424;BME280;64005;55.160;36.002;2023-03-01T06:00:45;98606.19;;;-4.58;67.56
75424;BME280;64005;55.160;36.002;2023-03-01T06:03:15;98605.00;;;-4.45;67.21
75424;BME280;64005;55.160;36.002;2023-03-01T06:05:45;98599.41;;;-4.38;66.42
75424;BME280;64005;55.160;36.002;2023-03-01T06:08:12;98597.91;;;-4.29;66.77
75424;BME280;64005;55.160;36.002;2023-03-01T06:10:40;98601.94;;;-4.32;66.80
75424;BME280;64005;55.160;36.002;2023-03-01T06:13:08;98604.81;;;-4.22;66.66
75424;BME280;64005;55.160;36.002;2023-03-01T06:15:35;98594.78;;;-4.21;66.22
75424;BME280;64005;55.160;36.002;2023-03-01T06:18:03;98607.19;;;-4.25;66.53
75424;BME280;64005;55.160;36.002;2023-03-01T06:20:30;98604.75;;;-4.27;66.47
75424;BME280;64005;55.160;36.002;2023-03-01T06:22:59;98612.06;;;-4.27;66.23
75424;BME280;64005;55.160;36.002;2023-03-01T06:25:27;98616.75;;;-4.23;66.30
75424;BME280;64005;55.160;36.002;2023-03-01T06:27:55;98612.06;;;-4.27;66.33
75424;BME280;64005;55.160;36.002;2023-03-01T06:30:24;98600.06;;;-4.31;66.35
75424;BME280;64005;55.160;36.002;2023-03-01T06:32:52;98625.78;;;-4.17;66.25
75424;BME280;64005;55.160;36.002;2023-03-01T06:35:26;98624.91;;;-4.23;66.07
75424;BME280;64005;55.160;36.002;2023-03-01T06:37:55;98627.19;;;-4.15;66.65
75424;BME280;64005;55.160;36.002;2023-03-01T06:40:25;98626.59;;;-4.00;66.20
75424;BME280;64005;55.160;36.002;2023-03-01T06:42:52;98633.59;;;-3.82;66.16
75424;BME280;64005;55.160;36.002;2023-03-01T06:45:20;98621.28;;;-3.68;65.86
75424;BME280;64005;55.160;36.002;2023-03-01T06:47:48;98630.75;;;-3.71;65.74
75424;BME280;64005;55.160;36.002;2023-03-01T06:50:17;98601.13;;;-3.94;65.80
75424;BME280;64005;55.160;36.002;2023-03-01T06:52:45;98620.41;;;-3.74;65.64
75424;BME280;64005;55.160;36.002;2023-03-01T06:55:13;98627.09;;;-3.81;65.21
75424;BME280;64005;55.160;36.002;2023-03-01T06:57:42;98625.41;;;-4.04;65.40
75424;BME280;64005;55.160;36.002;2023-03-01T07:00:10;98635.16;;;-4.08;65.59
75424;BME280;64005;55.160;36.002;2023-03-01T07:02:38;98637.06;;;-3.87;65.35
75424;BME280;64005;55.160;36.002;2023-03-01T07:05:06;98633.84;;;-3.84;64.90
75424;BME280;64005;55.160;36.002;2023-03-01T07:07:34;98643.84;;;-3.68;64.88
75424;BME280;64005;55.160;36.002;2023-03-01T07:10:01;98632.00;;;-3.78;64.40
75424;BME280;64005;55.160;36.002;2023-03-01T07:12:29;98641.16;;;-3.84;64.25
75424;BME280;64005;55.160;36.002;2023-03-01T07:14:58;98642.81;;;-3.83;64.40
75424;BME280;64005;55.160;36.002;2023-03-01T07:17:29;98650.34;;;-3.69;64.06
75424;BME280;64005;55.160;36.002;2023-03-01T07:19:57;98652.81;;;-3.67;63.88
75424;BME280;64005;55.160;36.002;2023-03-01T07:22:24;98654.13;;;-3.70;63.84
75424;BME280;64005;55.160;36.002;2023-03-01T07:24:52;98659.91;;;-3.66;63.72
75424;BME280;64005;55.160;36.002;2023-03-01T07:27:19;98659.25;;;-3.73;63.59
75424;BME280;64005;55.160;36.002;2023-03-01T07:29:47;98668.41;;;-3.57;63.55
75424;BME280;64005;55.160;36.002;2023-03-01T07:32:16;98661.28;;;-3.64;63.48
75424;BME280;64005;55.160;36.002;2023-03-01T07:34:43;98667.59;;;-3.58;63.19
75424;BME280;64005;55.160;36.002;2023-03-01T07:37:11;98679.22;;;-3.63;63.32
75424;BME280;64005;55.160;36.002;2023-03-01T07:39:38;98670.25;;;-3.63;62.81
75424;BME280;64005;55.160;36.002;2023-03-01T07:42:06;98677.00;;;-3.44;62.80
75424;BME280;64005;55.160;36.002;2023-03-01T07:44:33;98667.44;;;-3.25;62.61
75424;BME280;64005;55.160;36.002;2023-03-01T07:47:02;98682.44;;;-3.22;62.47
75424;BME280;64005;55.160;36.002;2023-03-01T07:49:31;98676.56;;;-3.14;62.40
75424;BME280;64005;55.160;36.002;2023-03-01T07:51:59;98688.19;;;-2.92;61.79
75424;BME280;64005;55.160;36.002;2023-03-01T07:54:26;98682.47;;;-2.95;61.74
75424;BME280;64005;55.160;36.002;2023-03-01T07:56:54;98699.56;;;-3.00;61.90
75424;BME280;64005;55.160;36.002;2023-03-01T07:59:23;98693.09;;;-2.94;61.72
75424;BME280;64005;55.160;36.002;2023-03-01T08:01:54;98704.66;;;-2.82;61.88
75424;BME280;64005;55.160;36.002;2023-03-01T08:04:22;98693.78;;;-2.50;60.99
75424;BME280;64005;55.160;36.002;2023-03-01T08:06:52;98697.78;;;-2.25;59.63
75424;BME280;64005;55.160;36.002;2023-03-01T08:09:19;98697.22;;;-2.27;59.63
75424;BME280;64005;55.160;36.002;2023-03-01T08:11:47;98716.94;;;-2.15;59.90
75424;BME280;64005;55.160;36.002;2023-03-01T08:14:14;98702.28;;;-2.04;60.01
75424;BME280;64005;55.160;36.002;2023-03-01T08:16:42;98695.84;;;-1.93;59.12
75424;BME280;64005;55.160;36.002;2023-03-01T08:19:11;98692.53;;;-2.00;59.28
75424;BME280;64005;55.160;36.002;2023-03-01T08:21:39;98690.47;;;-1.78;58.97
75424;BME280;64005;55.160;36.002;2023-03-01T08:24:08;98692.22;;;-1.56;58.91
75424;BME280;64005;55.160;36.002;2023-03-01T08:26:37;98689.03;;;-1.90;58.16
75424;BME280;64005;55.160;36.002;2023-03-01T08:29:05;98696.63;;;-1.97;58.01
75424;BME280;64005;55.160;36.002;2023-03-01T08:31:34;98675.81;;;-2.14;58.11
75424;BME280;64005;55.160;36.002;2023-03-01T08:34:05;98715.56;;;-1.81;57.21
75424;BME280;64005;55.160;36.002;2023-03-01T08:36:36;98663.16;;;-1.93;57.36
75424;BME280;64005;55.160;36.002;2023-03-01T08:39:04;98698.81;;;-1.47;56.68
75424;BME280;64005;55.160;36.002;2023-03-01T08:41:33;98713.66;;;-1.18;56.47
75424;BME280;64005;55.160;36.002;2023-03-01T08:44:01;98717.28;;;-1.07;56.07
75424;BME280;64005;55.160;36.002;2023-03-01T08:46:30;98717.22;;;-1.12;55.41
75424;BME280;64005;55.160;36.002;2023-03-01T08:48:57;98713.72;;;-1.08;55.19
75424;BME280;64005;55.160;36.002;2023-03-01T08:51:25;98724.59;;;-1.13;54.74
75424;BME280;64005;55.160;36.002;2023-03-01T08:53:54;98738.56;;;-1.04;55.04
75424;BME280;64005;55.160;36.002;2023-03-01T08:56:21;98731.13;;;-1.24;54.32
75424;BME280;64005;55.160;36.002;2023-03-01T08:58:50;98732.78;;;-1.13;54.97
75424;BME280;64005;55.160;36.002;2023-03-01T09:01:18;98737.47;;;-1.13;54.35
75424;BME280;64005;55.160;36.002;2023-03-01T09:03:46;98731.91;;;-1.29;54.62
75424;BME280;64005;55.160;36.002;2023-03-01T09:06:14;98748.28;;;-1.34;54.44
75424;BME280;64005;55.160;36.002;2023-03-01T09:08:43;98720.13;;;-1.39;55.01
75424;BME280;64005;55.160;36.002;2023-03-01T09:11:13;98750.47;;;-1.26;54.29
75424;BME280;64005;55.160;36.002;2023-03-01T09:13:41;98724.84;;;-1.25;53.52
75424;BME280;64005;55.160;36.002;2023-03-01T09:16:12;98730.59;;;-1.21;54.67
75424;BME280;64005;55.160;36.002;2023-03-01T09:18:40;98729.47;;;-1.25;53.72
75424;BME280;64005;55.160;36.002;2023-03-01T09:21:10;98725.97;;;-1.15;54.55
75424;BME280;64005;55.160;36.002;2023-03-01T09:23:41;98734.22;;;-1.00;53.58
75424;BME280;64005;55.160;36.002;2023-03-01T09:26:10;98743.31;;;-0.69;54.02
75424;BME280;64005;55.160;36.002;2023-03-01T09:28:38;98727.50;;;-0.52;53.54
75424;BME280;64005;55.160;36.002;2023-03-01T09:31:07;98740.84;;;-0.66;53.68
75424;BME280;64005;55.160;36.002;2023-03-01T09:33:36;98727.19;;;-0.76;52.99
75424;BME280;64005;55.160;36.002;2023-03-01T09:36:05;98729.34;;;-0.88;53.14
75424;BME280;64005;55.160;36.002;2023-03-01T09:38:33;98739.13;;;-1.02;52.97
75424;BME280;64005;55.160;36.002;2023-03-01T09:41:02;98740.22;;;-0.98;52.98
75424;BME280;64005;55.160;36.002;2023-03-01T09:43:35;98737.03;;;-0.65;53.54
75424;BME280;64005;55.160;36.002;2023-03-01T09:46:10;98752.69;;;-0.30;51.70
75424;BME280;64005;55.160;36.002;2023-03-01T09:48:41;98746.66;;;-0.32;52.39
75424;BME280;64005;55.160;36.002;2023-03-01T09:51:15;98752.69;;;-0.35;51.58
75424;BME280;64005;55.160;36.002;2023-03-01T09:53:45;98770.41;;;-0.43;51.83
75424;BME280;64005;55.160;36.002;2023-03-01T09:56:17;98725.59;;;-0.62;51.85
75424;BME280;64005;55.160;36.002;2023-03-01T09:58:52;98754.28;;;-0.39;51.74
75424;BME280;64005;55.160;36.002;2023-03-01T10:01:30;98734.88;;;-0.68;52.26
75424;BME280;64005;55.160;36.002;2023-03-01T10:04:28;98767.13;;;-0.40;52.25
75424;BME280;64005;55.160;36.002;2023-03-01T10:07:06;98771.81;;;-0.35;52.54
75424;BME280;64005;55.160;36.002;2023-03-01T10:09:39;98771.50;;;-0.49;52.48
75424;BME280;64005;55.160;36.002;2023-03-01T10:12:10;98743.88;;;-0.62;51.54
75424;BME280;64005;55.160;36.002;2023-03-01T10:14:43;98755.06;;;-0.59;51.30
75424;BME280;64005;55.160;36.002;2023-03-01T10:17:23;98745.78;;;-0.53;51.79
75424;BME280;64005;55.160;36.002;2023-03-01T10:19:53;98758.69;;;-0.23;51.31
75424;BME280;64005;55.160;36.002;2023-03-01T10:22:26;98754.06;;;-0.27;51.74
75424;BME280;64005;55.160;36.002;2023-03-01T10:24:58;98752.94;;;-0.31;50.85
75424;BME280;64005;55.160;36.002;2023-03-01T10:27:33;98749.66;;;-0.38;51.99
75424;BME280;64005;55.160;36.002;2023-03-01T10:30:09;98762.19;;;-0.63;52.06
75424;BME280;64005;55.160;36.002;2023-03-01T10:32:42;98753.94;;;-0.73;52.15
75424;BME280;64005;55.160;36.002;2023-03-01T10:35:20;98746.38;;;-0.41;51.77
75424;BME280;64005;55.160;36.002;2023-03-01T10:38:02;98765.81;;;-0.22;50.38
75424;BME280;64005;55.160;36.002;2023-03-01T10:40:30;98764.13;;;-0.38;51.11
75424;BME280;64005;55.160;36.002;2023-03-01T10:42:59;98771.00;;;-0.15;50.61
75424;BME280;64005;55.160;36.002;2023-03-01T10:45:33;98779.75;;;-0.03;50.82
75424;BME280;64005;55.160;36.002;2023-03-01T10:48:13;98768.53;;;-0.12;50.12
75424;BME280;64005;55.160;36.002;2023-03-01T10:50:44;98763.06;;;-0.17;50.22
75424;BME280;64005;55.160;36.002;2023-03-01T10:56:02;98764.16;;;-0.23;50.90
75424;BME280;64005;55.160;36.002;2023-03-01T10:58:30;98771.81;;;-0.25;50.39
75424;BME280;64005;55.160;36.002;2023-03-01T11:00:59;98765.53;;;-0.15;50.53
75424;BME280;64005;55.160;36.002;2023-03-01T11:03:29;98769.09;;;-0.05;51.16
75424;BME280;64005;55.160;36.002;2023-03-01T11:06:03;98706.22;;;-0.35;50.30
75424;BME280;64005;55.160;36.002;2023-03-01T11:08:43;98719.88;;;-0.40;50.59
75424;BME280;64005;55.160;36.002;2023-03-01T11:11:22;98765.53;;;-0.05;50.76
75424;BME280;64005;55.160;36.002;2023-03-01T11:14:02;98763.59;;;0.21;49.77
75424;BME280;64005;55.160;36.002;2023-03-01T11:16:35;98754.81;;;0.49;49.55
75424;BME280;64005;55.160;36.002;2023-03-01T11:19:19;98755.31;;;0.71;49.32
75424;BME280;64005;55.160;36.002;2023-03-01T11:21:54;98767.91;;;0.72;49.50
75424;BME280;64005;55.160;36.002;2023-03-01T11:24:30;98766.25;;;0.76;48.18
75424;BME280;64005;55.160;36.002;2023-03-01T11:27:03;98770.66;;;0.67;48.58
75424;BME280;64005;55.160;36.002;2023-03-01T11:29:36;98652.34;;;0.01;47.99
75424;BME280;64005;55.160;36.002;2023-03-01T11:32:07;98751.00;;;0.40;47.83
75424;BME280;64005;55.160;36.002;2023-03-01T11:34:38;98765.81;;;0.19;48.23
75424;BME280;64005;55.160;36.002;2023-03-01T11:37:16;98762.78;;;0.30;48.28
75424;BME280;64005;55.160;36.002;2023-03-01T11:39:56;98768.53;;;0.29;48.88
75424;BME280;64005;55.160;36.002;2023-03-01T11:42:37;98764.72;;;0.10;48.17
75424;BME280;64005;55.160;36.002;2023-03-01T11:45:09;98783.06;;;-0.01;49.13
75424;BME280;64005;55.160;36.002;2023-03-01T11:47:47;98768.53;;;-0.17;49.08
75424;BME280;64005;55.160;36.002;2023-03-01T11:50:28;98768.25;;;-0.25;49.10
75424;BME280;64005;55.160;36.002;2023-03-01T11:53:15;98773.44;;;-0.19;49.93
75424;BME280;64005;55.160;36.002;2023-03-01T11:55:56;98781.94;;;-0.15;50.19
75424;BME280;64005;55.160;36.002;2023-03-01T11:58:56;98801.34;;;-0.22;50.47
75424;BME280;64005;55.160;36.002;2023-03-01T12:01:35;98796.91;;;-0.48;49.85
75424;BME280;64005;55.160;36.002;2023-03-01T12:04:14;98798.19;;;-0.76;49.89
75424;BME280;64005;55.160;36.002;2023-03-01T12:06:52;98763.94;;;-1.04;50.68
75424;BME280;64005;55.160;36.002;2023-03-01T12:09:34;98815.06;;;-0.89;51.18
75424;BME280;64005;55.160;36.002;2023-03-01T12:18:18;98811.78;;;-0.91;52.23
75424;BME280;64005;55.160;36.002;2023-03-01T12:20:58;98766.06;;;-1.21;51.68
75424;BME280;64005;55.160;36.002;2023-03-01T12:23:50;98805.38;;;-1.17;51.41
75424;BME280;64005;55.160;36.002;2023-03-01T12:26:28;98824.94;;;-1.30;51.52
75424;BME280;64005;55.160;36.002;2023-03-01T12:29:13;98813.44;;;-1.37;50.94
75424;BME280;64005;55.160;36.002;2023-03-01T12:32:15;98828.22;;;-1.33;51.63
75424;BME280;64005;55.160;36.002;2023-03-01T12:35:10;98821.94;;;-1.34;51.23
75424;BME280;64005;55.160;36.002;2023-03-01T12:37:51;98823.91;;;-1.24;51.78
75424;BME280;64005;55.160;36.002;2023-03-01T12:40:33;98819.75;;;-1.32;51.65
75424;BME280;64005;55.160;36.002;2023-03-01T12:43:22;98809.97;;;-1.28;51.81
75424;BME280;64005;55.160;36.002;2023-03-01T12:46:09;98814.22;;;-1.47;52.62
75424;BME280;64005;55.160;36.002;2023-03-01T12:48:46;98814.47;;;-1.48;53.30
75424;BME280;64005;55.160;36.002;2023-03-01T12:51:22;98810.66;;;-1.47;53.54
75424;BME280;64005;55.160;36.002;2023-03-01T12:53:52;98819.84;;;-1.58;53.42
75424;BME280;64005;55.160;36.002;2023-03-01T12:56:22;98804.00;;;-1.67;53.92
75424;BME280;64005;55.160;36.002;2023-03-01T12:58:59;98806.94;;;-1.73;53.83
75424;BME280;64005;55.160;36.002;2023-03-01T13:01:40;98799.88;;;-1.69;53.82
75424;BME280;64005;55.160;36.002;2023-03-01T13:04:30;98797.16;;;-1.69;53.81
75424;BME280;64005;55.160;36.002;2023-03-01T13:07:14;98802.50;;;-1.79;53.62
75424;BME280;64005;55.160;36.002;2023-03-01T13:09:50;98810.22;;;-1.71;53.89
75424;BME280;64005;55.160;36.002;2023-03-01T13:12:51;98812.22;;;-1.56;53.82
75424;BME280;64005;55.160;36.002;2023-03-01T13:15:29;98788.63;;;-1.41;53.71
75424;BME280;64005;55.160;36.002;2023-03-01T13:17:59;98799.81;;;-1.32;53.13
75424;BME280;64005;55.160;36.002;2023-03-01T13:20:31;98750.31;;;-1.61;53.72